Sea Island, GA (31561)

8:35 AM EDT on July 28, 2014 (GMT -0400)
McKinnon (KSSI) Elev 20 ft | 31.15 °N, 81.39 °W | Change Station
Active Advisory: Heat Advisory

Current weather conditions updated 42 minutes ago

Clear
Clear
80 °F
Feels Like 85 °F
N
10
Wind Variable Wind from WSW

Today is forecast to be nearly the same temperature as yesterday. Scattered thunderstorms tonight.

Today
High -- | Low -- °F
--% Chance of Precip.
Yesterday
High -- | Low -- °F
Precip. -- in
6:39 AM 8:23 PM
New Moon, 2% visible
Pressure 29.97 in
Visibility 9.0 miles
Clouds Clear
Heat Index 85 °F
Dew Point 76 °F
Humidity 87%
Rainfall 0.00 in
Snow Depth Not available.
UV 1 out of 12
Pollen 6.00 out of 12
Air Quality Not available.
Flu Activity Not available.
METAR KSSI 281153Z AUTO 25009KT 9SM CLR 27/24 A2997 RMK AO2 SLP148 T02670244 10278 20261 51005

More Conditions Fewer Conditions

Pressure 29.97 in
Visibility 9.0 miles
Clouds Clear
Heat Index 85 °F
Dew Point 76 °F
Humidity 87%
Rainfall 0.00 in
Snow Depth Not available.
UV 1 out of 12
Pollen 6.00 out of 12
Air Quality Not available.
Flu Activity Not available.
METAR KSSI 281153Z AUTO 25009KT 9SM CLR 27/24 A2997 RMK AO2 SLP148 T02670244 10278 20261 51005

More Conditions Fewer Conditions

10-Day Weather Forecast

Almanac

Astronomy

Jul. 28, 2014 Rise Set
Actual Time 6:39 AM EDT 8:23 PM EDT
Civil Twilight 6:13 AM EDT 8:50 PM EDT
Nautical Twilight 5:41 AM EDT 9:22 PM EDT
Astronomical Twilight 5:07 AM EDT 9:55 PM EDT
Moon 8:10 AM EDT 9:16 PM EDT
Length of Visible Light 14h 37m
Length of Day
13h 44m
Tomorrow will be 1m 20s shorter.
New Moon, 2% of the Moon is Illuminated
Today
New Moon
Aug 3
First Quarter
Aug 10
Full
Aug 17
Last Quarter
Aug 25
New

Today's Extremes

State Highs State Lows

Community

WunderPhotos

Upload Photos

1,738,311 photos uploaded!

Nearby

Snow Depth

Station Depth Elevation
No new snow has been reported.

Earthquake Activity

City Distance Mag. Time & Date
No recent earthquake activity has been reported nearby.
Minimum magnitude displayed is 2.5.

Coastal Water Temperatures

Place Temperature
Fernandina Beach, FL 86.0 °F
Mayport (Bar Pilots Dock), FL 86.0 °F

Nearby Weather Stations

Station Location Temp. Heat Index Dew Point Humidity Wind Precip. Elev Updated Type
Country Walk, Brunswick, GA 81.9 °F 91 °F 78 °F 88% West  at  1.0 mph 0.00 in / hr 30 ft 8:34 AM EDT Rapid Fire
Avalon Place, Brunswick, GA 81.3 °F 89 °F 78 °F 89% SW  at  3.8 mph 0.00 in / hr 43 ft 8:34 AM EDT Rapid Fire
MesoWest NERRS METEOROLOGICAL SITE ON SA, Sapelo Island, GA 81 °F 88 °F 77 °F 88% WSW  at  13 mph 0.00 in / hr 22 ft 7:00 AM EDT MADIS
RAWS STERLING GA, Brunswick, GA 78 °F 80 °F 75 °F 90% West  at  2 mph 0.00 in / hr 13 ft 7:04 AM EDT MADIS

Show More Stations Show Fewer Stations